Time;durP1;ratioP1;P1;durP2;ratioP2;P2;SDS_P1;SDS_P2;PMS_P1;PMS_P2;Temp;Humidity;BMP_temperature;BMP_pressure;BME280_temperature;BME280_humidity;BME280_pressure;Samples;Min_cycle;Max_cycle;Signal;HPM_P1;HPM_P2
2022/04/14 00:00:28;;;;;;;13.10;2.80;;;;;;;14.55;100.00;101512.91;4812729;29;20551;-88
2022/04/14 00:02:56;;;;;;;14.00;2.17;;;;;;;14.51;100.00;101501.44;4840451;29;20457;-87
2022/04/14 00:05:25;;;;;;;18.17;2.60;;;;;;;14.50;100.00;101497.84;4813094;29;20511;-87
2022/04/14 00:07:53;;;;;;;18.27;2.93;;;;;;;14.54;100.00;101498.28;4813580;29;20449;-88
2022/04/14 00:10:20;;;;;;;12.90;2.47;;;;;;;14.54;100.00;101503.78;4827679;29;20459;-88
2022/04/14 00:12:48;;;;;;;15.90;3.67;;;;;;;14.43;100.00;101488.69;4828196;29;20445;-88
2022/04/14 00:15:16;;;;;;;9.60;2.50;;;;;;;14.49;100.00;101500.78;4827768;29;20453;-88
2022/04/14 00:17:44;;;;;;;21.93;3.60;;;;;;;14.48;100.00;101499.94;4812930;29;20533;-87
2022/04/14 00:20:12;;;;;;;14.93;2.43;;;;;;;14.46;100.00;101513.03;4842858;29;20488;-89
2022/04/14 00:22:40;;;;;;;13.90;2.57;;;;;;;14.44;100.00;101508.78;4836631;29;20475;-88
2022/04/14 00:25:10;;;;;;;9.50;2.60;;;;;;;14.46;100.00;101512.19;4861037;29;20490;-89
2022/04/14 00:27:38;;;;;;;47.00;4.73;;;;;;;14.44;100.00;101509.63;4845656;29;20558;-88
2022/04/14 00:30:15;;;;;;;12.53;2.07;;;;;;;14.42;100.00;101506.25;4830938;29;20541;-88
2022/04/14 00:32:43;;;;;;;11.60;2.40;;;;;;;14.44;100.00;101508.78;4861040;29;20458;-87
2022/04/14 00:35:11;;;;;;;11.80;2.73;;;;;;;14.34;100.00;101497.25;4845773;29;20536;-88
2022/04/14 00:37:39;;;;;;;12.90;2.20;;;;;;;14.45;100.00;101511.34;4859692;29;20492;-89
2022/04/14 00:40:14;;;;;;;13.23;2.50;;;;;;;14.41;100.00;101504.56;4843877;29;20485;-88
2022/04/14 00:42:41;;;;;;;16.03;4.27;;;;;;;14.36;100.00;101501.53;4861988;29;20464;-88
2022/04/14 00:45:09;;;;;;;13.20;2.53;;;;;;;14.37;100.00;101508.72;4845865;29;20452;-89
2022/04/14 00:47:37;;;;;;;11.63;2.10;;;;;;;14.35;100.00;101505.31;4842223;29;20496;-87
2022/04/14 00:50:07;;;;;;;15.37;2.43;;;;;;;14.33;100.00;101506.56;4875622;29;20527;-89
2022/04/14 00:52:34;;;;;;;16.77;2.37;;;;;;;14.29;100.00;101500.59;4860505;29;20447;-88
2022/04/14 00:55:02;;;;;;;12.93;1.77;;;;;;;14.29;100.00;101505.25;4827307;29;20453;-88
2022/04/14 00:57:30;;;;;;;10.13;2.10;;;;;;;14.28;100.00;101500.81;4852791;29;20543;-89
2022/04/14 01:00:00;;;;;;;8.13;2.13;;;;;;;14.24;100.00;101497.59;4830441;29;20451;-88
2022/04/14 01:02:28;;;;;;;14.30;1.70;;;;;;;14.22;100.00;101496.13;4875624;29;20459;-88
2022/04/14 01:04:56;;;;;;;8.57;1.97;;;;;;;14.20;100.00;101496.31;4859892;29;20547;-89
2022/04/14 01:07:25;;;;;;;8.77;2.70;;;;;;;14.16;100.00;101490.38;4860227;29;20510;-88
2022/04/14 01:09:53;;;;;;;4.60;1.63;;;;;;;14.15;100.00;101488.66;4860423;29;20494;-89
2022/04/14 01:12:21;;;;;;;6.13;1.67;;;;;;;14.16;100.00;101486.75;4875026;29;20456;-88
2022/04/14 01:14:49;;;;;;;14.77;1.60;;;;;;;14.11;100.00;101486.50;4844823;29;20456;-88
2022/04/14 01:17:16;;;;;;;4.53;1.23;;;;;;;14.05;100.00;101481.78;4845242;29;20963;-89
2022/04/14 01:19:44;;;;;;;6.10;1.50;;;;;;;14.04;100.00;101474.63;4844857;29;20528;-88
2022/04/14 01:22:18;;;;;;;6.20;1.47;;;;;;;14.06;100.00;101472.50;4824492;29;20473;-88
2022/04/14 01:24:46;;;;;;;5.80;1.30;;;;;;;14.05;100.00;101476.28;4838295;29;20451;-88
2022/04/14 01:27:14;;;;;;;10.90;1.40;;;;;;;14.01;100.00;101469.50;4826335;29;20492;-87
2022/04/14 01:29:42;;;;;;;6.07;1.77;;;;;;;14.01;100.00;101466.78;4826993;29;20539;-88
2022/04/14 01:32:10;;;;;;;9.17;1.43;;;;;;;13.98;100.00;101464.41;4811679;29;20874;-88
2022/04/14 01:34:38;;;;;;;4.73;1.43;;;;;;;13.92;100.00;101449.56;4811187;29;20539;-88
2022/04/14 01:37:05;;;;;;;10.47;1.90;;;;;;;13.97;100.00;101460.81;4841656;29;20451;-88
2022/04/14 01:39:33;;;;;;;5.23;1.10;;;;;;;13.89;100.00;101443.59;4811640;29;20463;-89
2022/04/14 01:42:02;;;;;;;8.73;1.80;;;;;;;13.90;100.00;101450.81;4811551;29;20453;-88
2022/04/14 01:44:29;;;;;;;8.40;2.43;;;;;;;13.92;100.00;101456.94;4808863;29;20473;-88
2022/04/14 01:46:58;;;;;;;4.30;1.20;;;;;;;13.79;100.00;101441.22;4811727;29;20548;-89
2022/04/14 01:49:25;;;;;;;5.53;1.33;;;;;;;13.87;100.00;101462.19;4825762;29;20547;-88
2022/04/14 01:51:53;;;;;;;7.60;1.40;;;;;;;13.86;100.00;101452.25;4826272;29;20448;-89
2022/04/14 01:54:21;;;;;;;4.10;1.10;;;;;;;13.85;100.00;101454.16;4811433;29;20539;-88
2022/04/14 01:56:49;;;;;;;9.53;1.70;;;;;;;13.86;100.00;101444.00;4810964;29;20535;-87
2022/04/14 01:59:17;;;;;;;12.60;1.70;;;;;;;13.81;100.00;101453.72;4841846;29;20464;-88
2022/04/14 02:01:45;;;;;;;4.37;1.40;;;;;;;13.83;100.00;101456.25;4826516;29;20535;-89
2022/04/14 02:04:13;;;;;;;7.03;1.13;;;;;;;13.80;100.00;101457.50;4811425;29;20509;-88
2022/04/14 02:06:41;;;;;;;15.23;1.50;;;;;;;13.77;100.00;101440.56;4825879;29;20987;-88
2022/04/14 02:09:09;;;;;;;7.53;1.73;;;;;;;13.80;100.00;101443.75;4811809;29;20443;-89
2022/04/14 02:11:36;;;;;;;10.70;1.43;;;;;;;13.79;100.00;101450.31;4825987;29;20516;-87
2022/04/14 02:14:04;;;;;;;4.73;1.70;;;;;;;13.80;100.00;101449.25;4811304;29;20455;-89
2022/04/14 02:16:32;;;;;;;7.90;1.93;;;;;;;13.81;100.00;101436.38;4823234;29;20453;-88
2022/04/14 02:19:00;;;;;;;7.60;1.97;;;;;;;13.79;100.00;101427.47;4819304;29;20452;-87
2022/04/14 02:21:28;;;;;;;9.03;1.30;;;;;;;13.77;100.00;101427.66;4825245;29;21037;-89
2022/04/14 02:23:55;;;;;;;10.27;1.27;;;;;;;13.78;100.00;101429.38;4826567;29;20472;-88
2022/04/14 02:26:23;;;;;;;6.60;1.23;;;;;;;13.77;100.00;101430.41;4808850;29;20974;-88
2022/04/14 02:28:51;;;;;;;7.20;1.43;;;;;;;13.77;100.00;101441.41;4824876;29;20464;-88
2022/04/14 02:31:18;;;;;;;10.90;1.43;;;;;;;13.76;100.00;101420.47;4840196;29;20491;-87
2022/04/14 02:33:46;;;;;;;7.20;1.50;;;;;;;13.79;100.00;101427.47;4824364;29;20448;-88
2022/04/14 02:36:14;;;;;;;5.47;1.93;;;;;;;13.70;100.00;101409.41;4810553;29;20509;-87
2022/04/14 02:38:43;;;;;;;4.83;1.47;;;;;;;13.64;100.00;101400.09;4811249;29;20484;-89
2022/04/14 02:41:11;;;;;;;4.27;1.23;;;;;;;13.74;100.00;101418.97;4825968;29;20453;-88
2022/04/14 02:43:39;;;;;;;13.07;1.73;;;;;;;13.73;100.00;101423.59;4826484;29;20452;-89
2022/04/14 02:46:07;;;;;;;7.93;1.60;;;;;;;13.65;100.00;101404.53;4825571;29;20452;-88
2022/04/14 02:48:36;;;;;;;18.20;1.60;;;;;;;13.70;100.00;101418.50;4810116;29;20505;-89
2022/04/14 02:51:04;;;;;;;2.70;1.00;;;;;;;13.68;100.00;101417.84;4840928;29;21020;-87
2022/04/14 02:53:32;;;;;;;4.77;1.30;;;;;;;13.64;100.00;101411.06;4811203;29;21016;-88
2022/04/14 02:56:01;;;;;;;3.50;1.20;;;;;;;13.67;100.00;101413.41;4825674;29;20547;-86
2022/04/14 02:58:29;;;;;;;3.30;1.20;;;;;;;13.64;100.00;101412.97;4840943;29;20825;-86
2022/04/14 03:00:56;;;;;;;3.20;1.07;;;;;;;13.63;100.00;101401.13;4810909;29;20452;-87
2022/04/14 03:03:26;;;;;;;5.60;1.60;;;;;;;13.57;100.00;101410.16;4825586;29;20831;-87
2022/04/14 03:05:53;;;;;;;7.30;1.40;;;;;;;13.53;100.00;101403.34;4810864;29;20531;-87
2022/04/14 03:08:22;;;;;;;2.50;1.17;;;;;;;13.59;100.00;101421.81;4842421;29;20440;-87
2022/04/14 03:10:50;;;;;;;6.50;1.20;;;;;;;13.48;100.00;101390.19;4811392;29;20925;-88
2022/04/14 03:13:20;;;;;;;4.10;1.30;;;;;;;13.60;100.00;101415.25;4840345;29;20537;-86
2022/04/14 03:15:51;;;;;;;6.30;1.30;;;;;;;13.62;100.00;101409.56;4825744;29;20449;-86
2022/04/14 03:18:20;;;;;;;3.60;1.10;;;;;;;13.58;100.00;101403.63;4843423;29;20450;-86
2022/04/14 03:20:48;;;;;;;10.63;1.67;;;;;;;13.58;100.00;101416.50;4845178;29;20487;-88
2022/04/14 03:23:17;;;;;;;8.50;1.10;;;;;;;13.59;100.00;101416.31;4813601;29;20484;-88
2022/04/14 03:25:45;;;;;;;6.10;1.13;;;;;;;13.59;100.00;101413.56;4829028;29;20487;-88
2022/04/14 03:28:13;;;;;;;3.30;1.13;;;;;;;13.58;100.00;101406.38;4829116;29;20484;-87
2022/04/14 03:30:42;;;;;;;8.63;1.47;;;;;;;13.56;100.00;101400.22;4828988;29;20453;-87
2022/04/14 03:33:11;;;;;;;2.37;1.00;;;;;;;13.54;100.00;101407.78;4809754;29;20449;-88
2022/04/14 03:35:39;;;;;;;6.60;1.57;;;;;;;13.51;100.00;101410.94;4828196;29;20460;-88
2022/04/14 03:38:07;;;;;;;8.63;1.33;;;;;;;13.50;100.00;101409.22;4814129;29;20445;-86
2022/04/14 03:40:56;;;;;;;8.80;1.20;;;;;;;13.42;100.00;101412.97;4830840;29;21035;-87
2022/04/14 03:43:24;;;;;;;3.93;1.33;;;;;;;13.42;100.00;101414.88;4844714;29;20452;-88
2022/04/14 03:45:54;;;;;;;4.67;1.20;;;;;;;13.39;100.00;101421.59;4824311;29;20448;-88
2022/04/14 03:48:21;;;;;;;3.17;0.80;;;;;;;13.32;100.00;101411.59;4841496;29;20519;-87
2022/04/14 03:50:49;;;;;;;5.70;1.43;;;;;;;13.32;100.00;101419.81;4828375;29;20460;-88
2022/04/14 03:53:18;;;;;;;2.23;0.80;;;;;;;13.30;100.00;101419.16;4813654;29;20463;-87
2022/04/14 03:55:49;;;;;;;3.23;1.17;;;;;;;13.29;100.00;101409.22;4813529;29;20455;-87
2022/04/14 03:58:19;;;;;;;4.33;1.20;;;;;;;13.29;100.00;101415.56;4828455;29;20866;-87
2022/04/14 04:00:48;;;;;;;4.07;1.20;;;;;;;13.34;100.00;101417.72;4843827;29;20455;-87
2022/04/14 04:03:16;;;;;;;4.63;1.23;;;;;;;13.36;100.00;101427.47;4843255;29;20448;-86
2022/04/14 04:05:44;;;;;;;8.27;1.40;;;;;;;13.34;100.00;101425.97;4843328;29;20517;-86
2022/04/14 04:08:13;;;;;;;8.63;1.30;;;;;;;13.34;99.99;101428.72;4828132;29;20491;-87
2022/04/14 04:10:41;;;;;;;3.13;0.90;;;;;;;13.30;100.00;101427.41;4827956;29;20453;-88
2022/04/14 04:13:08;;;;;;;5.43;1.67;;;;;;;13.25;100.00;101429.91;4813289;29;20476;-87
2022/04/14 04:15:38;;;;;;;3.13;0.90;;;;;;;13.13;100.00;101415.78;4826984;29;20483;-88
2022/04/14 04:18:08;;;;;;;3.60;1.30;;;;;;;13.17;100.00;101421.78;4842580;29;20457;-88
2022/04/14 04:20:36;;;;;;;2.70;1.00;;;;;;;13.17;100.00;101430.00;4828065;29;20457;-87
2022/04/14 04:23:07;;;;;;;3.70;1.10;;;;;;;13.13;100.00;101427.63;4821557;29;20828;-88
2022/04/14 04:25:35;;;;;;;4.53;1.60;;;;;;;13.03;100.00;101416.13;4842776;29;20855;-88
2022/04/14 04:28:03;;;;;;;6.33;1.30;;;;;;;13.09;100.00;101434.53;4840766;29;20496;-87
2022/04/14 04:30:31;;;;;;;4.30;1.33;;;;;;;13.04;100.00;101428.78;4828146;29;21041;-87
2022/04/14 04:32:59;;;;;;;4.30;1.13;;;;;;;13.07;100.00;101427.56;4849742;29;20528;-88
2022/04/14 04:35:27;;;;;;;4.30;1.53;;;;;;;13.09;100.00;101431.78;4827865;29;20449;-88
2022/04/14 04:37:55;;;;;;;3.33;1.10;;;;;;;13.09;100.00;101419.97;4827829;29;20444;-88
2022/04/14 04:40:23;;;;;;;3.10;1.17;;;;;;;13.19;100.00;101441.66;4823763;29;20505;-87
2022/04/14 04:42:51;;;;;;;5.47;1.00;;;;;;;13.20;100.00;101433.22;4851169;29;20452;-88
2022/04/14 04:45:19;;;;;;;1.63;1.00;;;;;;;13.24;100.00;101433.69;4873230;29;20444;-87
2022/04/14 04:47:47;;;;;;;6.10;1.63;;;;;;;13.25;100.00;101428.00;4855669;29;20484;-88
2022/04/14 04:50:14;;;;;;;4.40;1.37;;;;;;;13.25;100.00;101429.91;4828027;29;20449;-87
2022/04/14 04:52:42;;;;;;;3.43;1.03;;;;;;;13.28;100.00;101445.97;4827571;29;20441;-87
2022/04/14 04:55:13;;;;;;;6.30;1.80;;;;;;;13.21;100.00;101418.47;4827443;29;20449;-87
2022/04/14 04:57:40;;;;;;;7.40;1.30;;;;;;;13.24;100.00;101425.47;4856818;29;20456;-87
2022/04/14 05:00:11;;;;;;;5.50;1.20;;;;;;;13.25;100.00;101429.91;4856272;29;20528;-88
2022/04/14 05:02:39;;;;;;;3.50;1.47;;;;;;;13.23;100.00;101423.75;4841636;29;20459;-87
2022/04/14 05:05:07;;;;;;;7.37;1.33;;;;;;;13.19;100.00;101427.94;4826846;29;20567;-88
2022/04/14 05:07:35;;;;;;;4.13;1.30;;;;;;;13.28;100.00;101445.97;4842388;29;20587;-87
2022/04/14 05:10:03;;;;;;;5.97;1.70;;;;;;;13.28;100.00;101445.97;4841589;29;20449;-88
2022/04/14 05:12:30;;;;;;;8.43;1.50;;;;;;;13.26;100.00;101450.81;4856835;29;20448;-88
2022/04/14 05:15:01;;;;;;;9.23;1.90;;;;;;;13.27;100.00;101445.13;4856292;29;20811;-88
2022/04/14 05:17:29;;;;;;;3.87;1.20;;;;;;;13.25;100.00;101441.72;4842283;29;20898;-88
2022/04/14 05:20:00;;;;;;;6.93;1.70;;;;;;;13.23;100.00;101441.06;4841520;29;20456;-88
2022/04/14 05:22:28;;;;;;;6.10;1.50;;;;;;;13.16;100.00;101431.06;4860317;29;20479;-87
2022/04/14 05:24:56;;;;;;;4.67;1.47;;;;;;;13.21;100.00;101440.41;4844348;29;20467;-87
2022/04/14 05:27:23;;;;;;;3.80;1.50;;;;;;;13.19;100.00;101441.66;4843852;29;21240;-88
2022/04/14 05:29:51;;;;;;;8.50;2.10;;;;;;;13.19;100.00;101433.41;4845384;29;20480;-87
2022/04/14 05:32:19;;;;;;;7.33;2.10;;;;;;;13.19;100.00;101430.66;4844929;29;21596;-88
2022/04/14 05:34:47;;;;;;;15.20;1.83;;;;;;;13.19;100.00;101427.94;4859889;29;20963;-88
2022/04/14 05:37:15;;;;;;;7.50;1.60;;;;;;;13.17;100.00;101430.00;4845994;29;20462;-87
2022/04/14 05:39:42;;;;;;;7.17;1.40;;;;;;;13.20;100.00;101438.72;4844971;29;20454;-87
2022/04/14 05:42:10;;;;;;;7.30;1.97;;;;;;;13.20;100.00;101443.34;4844024;29;20440;-87
2022/04/14 05:44:38;;;;;;;4.33;1.50;;;;;;;13.19;100.00;101449.88;4844732;29;20472;-87
2022/04/14 05:47:07;;;;;;;4.60;1.63;;;;;;;13.16;100.00;101455.75;4859900;29;20511;-86
2022/04/14 05:49:35;;;;;;;8.17;1.47;;;;;;;13.16;100.00;101458.50;4860998;29;20551;-88
2022/04/14 05:52:03;;;;;;;4.90;1.60;;;;;;;13.17;100.00;101472.03;4829878;29;20452;-88
2022/04/14 05:54:30;;;;;;;6.27;1.87;;;;;;;13.20;100.00;101473.53;4844831;29;20974;-87
2022/04/14 05:56:59;;;;;;;8.00;2.17;;;;;;;13.17;100.00;101472.03;4844614;29;20451;-88
2022/04/14 05:59:28;;;;;;;15.50;1.87;;;;;;;13.16;100.00;101464.84;4890652;29;21106;-87
2022/04/14 06:01:58;;;;;;;9.30;2.07;;;;;;;13.16;100.00;101473.06;4859793;29;20443;-86
2022/04/14 06:04:27;;;;;;;5.80;1.40;;;;;;;13.12;100.00;101469.81;4844917;29;20451;-87
2022/04/14 06:06:55;;;;;;;8.57;1.90;;;;;;;13.14;100.00;101477.88;4844351;29;20873;-87
2022/04/14 06:09:24;;;;;;;5.27;1.40;;;;;;;13.13;100.00;101490.75;4844759;29;20978;-86
2022/04/14 06:11:52;;;;;;;8.63;1.90;;;;;;;13.14;100.00;101483.34;4829898;29;20448;-86
2022/04/14 06:14:19;;;;;;;5.97;1.73;;;;;;;13.12;100.00;101475.31;4829558;29;20503;-87
2022/04/14 06:16:47;;;;;;;3.80;1.30;;;;;;;13.16;100.00;101477.72;4860062;29;20539;-87
2022/04/14 06:19:15;;;;;;;9.53;1.70;;;;;;;13.18;100.00;101483.88;4844236;29;20542;-86
2022/04/14 06:21:43;;;;;;;9.73;1.57;;;;;;;13.16;100.00;101481.31;4860375;29;20538;-87
2022/04/14 06:24:11;;;;;;;11.87;2.10;;;;;;;13.16;100.00;101480.47;4862562;29;20813;-86
2022/04/14 06:26:39;;;;;;;7.90;2.10;;;;;;;13.17;100.00;101482.16;4877464;29;20454;-87
2022/04/14 06:29:07;;;;;;;2.10;1.20;;;;;;;13.19;100.00;101485.56;4880028;29;20490;-86
2022/04/14 06:31:37;;;;;;;7.27;1.50;;;;;;;13.22;100.00;101490.69;4846191;29;20450;-90
2022/04/14 06:34:07;;;;;;;3.80;1.30;;;;;;;13.24;100.00;101486.69;4863260;29;20452;-89
2022/04/14 06:36:35;;;;;;;4.27;1.33;;;;;;;13.29;100.00;101491.59;4832729;29;20447;-86
2022/04/14 06:39:03;;;;;;;5.90;1.10;;;;;;;13.32;100.00;101499.44;4844433;29;20808;-87
2022/04/14 06:41:31;;;;;;;3.90;1.40;;;;;;;13.36;100.00;101498.03;4859637;29;20825;-86
2022/04/14 06:43:59;;;;;;;11.33;2.30;;;;;;;13.38;100.00;101495.94;4829150;29;20451;-86
2022/04/14 06:46:29;;;;;;;8.53;2.17;;;;;;;13.40;100.00;101496.59;4844392;29;20824;-90
2022/04/14 06:48:57;;;;;;;3.77;1.67;;;;;;;13.45;100.00;101489.47;4844214;29;20488;-88
2022/04/14 06:51:25;;;;;;;6.10;1.93;;;;;;;13.48;100.00;101490.97;4855965;29;20451;-87
2022/04/14 06:53:52;;;;;;;7.83;1.97;;;;;;;13.54;100.00;101490.19;4862429;29;20451;-87
2022/04/14 06:56:21;;;;;;;5.23;1.63;;;;;;;13.57;100.00;101489.81;4878178;29;20483;-87
2022/04/14 06:58:50;;;;;;;10.53;1.93;;;;;;;13.49;100.00;101466.06;4863006;29;20470;-87
2022/04/14 07:01:20;;;;;;;5.97;1.63;;;;;;;13.60;100.00;101483.94;4864656;29;20454;-87
2022/04/14 07:03:47;;;;;;;8.10;1.80;;;;;;;13.71;100.00;101497.13;4865679;29;20471;-88
2022/04/14 07:06:16;;;;;;;3.37;1.20;;;;;;;13.64;100.00;101473.41;4836703;29;20532;-87
2022/04/14 07:08:45;;;;;;;3.90;1.33;;;;;;;13.80;100.00;101500.59;4839128;29;20496;-88
2022/04/14 07:11:14;;;;;;;6.60;1.73;;;;;;;13.86;100.00;101496.19;4866797;29;20439;-87
2022/04/14 07:13:42;;;;;;;4.10;1.43;;;;;;;13.87;100.00;101489.66;4850314;29;20446;-87
2022/04/14 07:16:11;;;;;;;5.97;1.57;;;;;;;13.97;100.00;101501.19;4849774;29;20527;-88
2022/04/14 07:18:40;;;;;;;3.27;1.63;;;;;;;14.03;100.00;101494.91;4880149;29;20435;-87
2022/04/14 07:21:10;;;;;;;7.27;1.93;;;;;;;14.08;100.00;101500.63;4830017;29;20444;-87
2022/04/14 07:23:38;;;;;;;6.63;1.37;;;;;;;14.15;99.98;101494.16;4849611;29;21011;-88
2022/04/14 07:26:06;;;;;;;5.53;1.23;;;;;;;14.18;99.44;101487.41;4832827;29;20435;-87
2022/04/14 07:28:35;;;;;;;10.90;1.50;;;;;;;14.26;98.94;101497.41;4845766;29;21001;-88
2022/04/14 07:31:04;;;;;;;5.93;1.40;;;;;;;14.36;99.31;101507.00;4879522;29;20445;-88
2022/04/14 07:33:34;;;;;;;5.87;1.30;;;;;;;14.37;98.79;101496.88;4846589;29;20443;-87
2022/04/14 07:36:04;;;;;;;4.20;1.70;;;;;;;14.49;98.37;101496.13;4839262;29;20545;-86
2022/04/14 07:38:54;;;;;;;6.33;1.57;;;;;;;14.55;98.12;101496.38;4867350;29;20451;-87
2022/04/14 07:41:23;;;;;;;3.80;1.40;;;;;;;14.62;98.03;101489.03;4867585;29;20463;-87
2022/04/14 07:43:51;;;;;;;4.70;1.57;;;;;;;14.69;97.84;101492.66;4831688;29;20497;-87
2022/04/14 07:46:18;;;;;;;3.83;1.17;;;;;;;14.77;97.80;101487.00;4840954;29;20450;-86
2022/04/14 07:48:46;;;;;;;4.40;1.57;;;;;;;14.89;96.96;101490.88;4834529;29;20490;-87
2022/04/14 07:51:15;;;;;;;3.10;1.50;;;;;;;14.91;96.27;101485.16;4856152;29;20451;-87
2022/04/14 07:53:42;;;;;;;3.83;1.37;;;;;;;14.99;95.33;101490.50;4865306;29;20442;-86
2022/04/14 07:56:10;;;;;;;5.87;1.23;;;;;;;15.06;95.21;101492.22;4865163;29;20494;-87
2022/04/14 07:58:39;;;;;;;5.27;1.40;;;;;;;15.11;94.96;101492.47;4850092;29;20450;-87
2022/04/14 08:01:08;;;;;;;5.90;1.10;;;;;;;15.15;94.52;101484.66;4834738;29;20451;-86
2022/04/14 08:03:38;;;;;;;4.63;1.13;;;;;;;15.27;94.44;101494.00;4864625;29;20446;-87
2022/04/14 08:06:06;;;;;;;3.13;1.43;;;;;;;15.34;94.15;101496.78;4849455;29;20451;-87
2022/04/14 08:08:36;;;;;;;3.80;1.20;;;;;;;15.42;93.44;101494.69;4878308;29;20985;-88
2022/04/14 08:11:04;;;;;;;3.83;1.57;;;;;;;15.48;93.62;101487.50;4864149;29;20791;-88
2022/04/14 08:13:38;;;;;;;3.70;1.23;;;;;;;15.58;92.99;101485.25;4865682;29;20447;-87
2022/04/14 08:16:08;;;;;;;9.97;1.47;;;;;;;15.63;92.92;101482.69;4863258;29;20506;-89
2022/04/14 08:18:40;;;;;;;4.70;1.20;;;;;;;15.70;92.48;101488.22;4851242;29;20468;-89
2022/04/14 08:21:12;;;;;;;4.13;0.87;;;;;;;15.69;92.12;101468.09;4850205;29;20446;-89
2022/04/14 08:23:40;;;;;;;1.80;1.00;;;;;;;15.79;91.92;101471.25;4816608;29;20547;-89
2022/04/14 08:26:21;;;;;;;2.63;1.23;;;;;;;15.93;91.37;101482.31;4843059;29;20452;-91
2022/04/14 08:28:50;;;;;;;5.70;1.70;;;;;;;15.93;91.58;101461.13;4813207;29;21004;-90
2022/04/14 08:35:19;;;;;;;4.40;1.70;;;;;;;16.24;91.43;101471.50;4806789;29;20422;-93
2022/04/14 08:37:53;;;;;;;3.77;1.53;;;;;;;16.54;90.77;101486.53;4775847;29;20550;-91
2022/04/14 08:40:42;;;;;;;6.30;1.30;;;;;;;16.56;89.70;101484.38;4743363;30;20444;-89
2022/04/14 08:44:06;;;;;;;7.47;1.63;;;;;;;16.85;89.92;101498.81;4755137;30;20437;-93
2022/04/14 08:46:50;;;;;;;7.30;1.53;;;;;;;16.98;88.95;101507.03;4763632;30;20478;-93
2022/04/14 08:49:48;;;;;;;2.70;0.80;;;;;;;17.06;87.91;101504.06;4772711;30;20486;-92
2022/04/14 08:52:35;;;;;;;3.07;1.37;;;;;;;17.08;87.06;101501.06;4761533;30;20970;-93
2022/04/14 08:55:23;;;;;;;4.43;1.27;;;;;;;17.22;87.50;101506.31;4760762;30;20591;-93
2022/04/14 08:58:13;;;;;;;8.60;1.97;;;;;;;17.45;86.44;101518.75;4746919;30;20438;-92
2022/04/14 09:00:58;;;;;;;3.07;1.30;;;;;;;17.62;85.11;101531.00;4754889;30;20960;-93
2022/04/14 09:03:46;;;;;;;2.27;1.20;;;;;;;17.81;85.26;101515.38;4793853;29;20457;-92
2022/04/14 09:06:26;;;;;;;3.80;1.50;;;;;;;17.97;84.58;101519.53;4775892;29;20451;-91
2022/04/14 09:08:57;;;;;;;4.00;1.10;;;;;;;17.98;84.00;101507.41;4808046;29;20492;-92
2022/04/14 09:11:34;;;;;;;3.30;1.73;;;;;;;18.08;83.72;101510.53;4779594;29;20490;-92
2022/04/14 09:14:03;;;;;;;4.13;1.10;;;;;;;18.13;83.84;101513.44;4776665;29;20450;-92
2022/04/14 09:16:33;;;;;;;8.60;1.43;;;;;;;18.24;83.23;101521.03;4774910;29;20469;-90
2022/04/14 09:19:02;;;;;;;7.33;1.60;;;;;;;18.33;83.58;101525.19;4824988;29;20459;-90
2022/04/14 09:21:59;;;;;;;2.80;0.90;;;;;;;18.53;83.08;101525.03;4827240;29;20512;-92
2022/04/14 09:24:50;;;;;;;3.63;1.33;;;;;;;18.59;82.50;101536.09;4831184;29;20455;-92
2022/04/14 09:27:37;;;;;;;2.87;1.10;;;;;;;18.69;82.87;101545.78;4860845;29;20451;-91
2022/04/14 09:30:08;;;;;;;2.93;1.43;;;;;;;18.68;82.92;101544.06;4846027;29;20973;-90
2022/04/14 09:32:42;;;;;;;2.63;1.10;;;;;;;18.89;82.53;101546.44;4830965;29;20451;-91
2022/04/14 09:35:18;;;;;;;3.67;1.17;;;;;;;18.88;81.56;101550.28;4845694;29;20458;-92
2022/04/14 09:37:46;;;;;;;4.83;0.87;;;;;;;18.95;81.21;101559.38;4860339;29;20541;-89
2022/04/14 09:43:33;;;;;;;4.70;0.90;;;;;;;19.04;79.96;101552.47;4835390;29;20452;-91
2022/04/14 09:46:45;;;;;;;6.80;1.50;;;;;;;;;;4802468;29;20468;-91
2022/04/14 09:49:16;;;;;;;6.43;1.47;;;;;;;;;;4811662;29;20499;-89
2022/04/14 09:51:51;;;;;;;3.73;1.50;;;;;;;19.28;nan;101568.16;4812544;29;20457;-90
2022/04/14 09:54:38;;;;;;;5.10;1.30;;;;;;;19.28;nan;101557.06;4826630;29;21031;-91
2022/04/14 09:57:34;;;;;;;7.40;1.70;;;;;;;19.43;nan;101565.00;4779355;29;20428;-90
2022/04/14 10:00:32;;;;;;;;;;;;;;;;;;;;;
2022/04/14 11:33:39;;;;;;;5.90;2.53;;;;;;;21.45;nan;101599.16;4883309;29;20406;-94
2022/04/14 11:55:53;;;;;;;6.90;1.23;;;;;;;21.94;nan;101610.72;4807519;29;20934;-95
2022/04/14 12:21:23;;;;;;;8.03;1.70;;;;;;;22.16;nan;101591.41;4846933;29;20482;-92
2022/04/14 12:23:52;;;;;;;9.77;1.53;;;;;;;22.27;nan;101598.88;4880254;29;20522;-92
2022/04/14 12:26:21;;;;;;;7.90;1.60;;;;;;;22.28;nan;101589.44;4865144;29;20454;-91
2022/04/14 12:28:48;;;;;;;6.43;1.60;;;;;;;22.24;nan;101613.31;4860327;29;20487;-90
2022/04/14 12:31:20;;;;;;;8.87;1.73;;;;;;;22.07;nan;101587.34;4835041;29;20450;-90
2022/04/14 12:33:58;;;;;;;4.40;1.53;;;;;;;22.12;nan;101584.69;4851260;29;20446;-90
2022/04/14 12:36:46;;;;;;;5.73;1.83;;;;;;;22.17;nan;101577.25;4865277;29;20904;-89
2022/04/14 12:39:22;;;;;;;10.10;1.43;;;;;;;22.14;nan;101599.16;4845475;29;20982;-90
2022/04/14 12:41:53;;;;;;;5.20;1.27;;;;;;;22.10;nan;101598.00;4854864;29;20530;-91
2022/04/14 12:44:22;;;;;;;6.60;1.73;;;;;;;21.96;nan;101587.13;4834310;29;20451;-89
2022/04/14 12:46:50;;;;;;;7.07;1.63;;;;;;;21.89;nan;101575.31;4834555;29;20832;-90
2022/04/14 12:49:30;;;;;;;5.23;1.20;;;;;;;21.88;nan;101601.44;4848726;29;20997;-90
2022/04/14 12:52:04;;;;;;;4.37;1.37;;;;;;;21.98;nan;101593.28;4855056;29;20463;-90
2022/04/14 12:54:33;;;;;;;7.70;1.70;;;;;;;22.29;nan;101625.38;4848679;29;20462;-90
2022/04/14 12:57:04;;;;;;;4.40;1.67;;;;;;;22.22;nan;101584.84;4874602;29;20454;-90
2022/04/14 12:59:36;;;;;;;4.97;1.33;;;;;;;22.22;nan;101584.84;4833974;29;20787;-90
2022/04/14 13:02:07;;;;;;;3.30;1.30;;;;;;;22.09;nan;101569.31;4864386;29;20481;-90
2022/04/14 13:04:41;;;;;;;5.40;1.30;;;;;;;22.31;nan;101577.78;4848932;29;20461;-90
2022/04/14 13:07:20;;;;;;;13.33;1.30;;;;;;;22.49;nan;101585.91;4860842;29;20458;-91
2022/04/14 13:10:00;;;;;;;4.40;1.30;;;;;;;22.44;nan;101571.88;4850066;29;20539;-91
2022/04/14 13:12:43;;;;;;;3.30;1.23;;;;;;;22.39;nan;101569.00;4835098;29;20439;-90
2022/04/14 13:15:18;;;;;;;5.90;1.67;;;;;;;22.39;nan;101557.84;4850496;29;20529;-91
2022/04/14 13:17:48;;;;;;;8.33;1.50;;;;;;;22.41;nan;101577.97;4850357;29;20513;-92
2022/04/14 13:20:41;;;;;;;9.57;1.20;;;;;;;22.61;nan;101575.50;4850148;29;20454;-91
2022/04/14 13:23:09;;;;;;;5.43;1.10;;;;;;;22.62;nan;101570.78;4842650;29;20485;-90
2022/04/14 13:25:40;;;;;;;7.60;1.50;;;;;;;22.68;nan;101561.41;4834438;29;20525;-90
2022/04/14 13:28:09;;;;;;;8.30;1.83;;;;;;;22.86;nan;101571.47;4849580;29;20894;-89
2022/04/14 13:30:38;;;;;;;12.93;2.23;;;;;;;22.95;nan;101575.50;4864934;29;20467;-89
2022/04/14 13:33:06;;;;;;;4.33;1.10;;;;;;;22.96;nan;101564.09;4835327;29;21069;-90
2022/04/14 13:35:38;;;;;;;3.80;1.13;;;;;;;22.89;nan;101541.16;4834757;29;20480;-90
2022/04/14 13:42:14;;;;;;;6.20;1.30;;;;;;;23.11;nan;101541.16;4862720;29;20472;-92
2022/04/14 13:56:27;;;;;;;5.07;1.00;;;;;;;23.15;nan;101547.91;4880936;29;20399;-93
2022/04/14 14:03:37;;;;;;;3.73;1.07;;;;;;;23.53;nan;101538.69;4880380;29;20463;-95
2022/04/14 14:48:58;;;;;;;9.40;1.50;;;;;;;23.04;nan;101510.69;4880322;29;20398;-93
2022/04/14 14:52:21;;;;;;;8.23;1.40;;;;;;;23.03;nan;101502.59;4808812;29;20445;-94
2022/04/14 15:10:15;;;;;;;6.70;2.03;;;;;;;22.96;nan;101474.88;4769572;30;20474;-92
2022/04/14 15:56:55;;;;;;;6.73;2.00;;;;;;;22.94;nan;101516.13;4864416;29;20391;-93
2022/04/14 16:00:11;;;;;;;;;;;;;;;;;;;;;
2022/04/14 16:38:15;;;;;;;13.70;2.00;;;;;;;22.42;nan;101504.44;4882116;29;20433;-92
2022/04/14 16:56:18;;;;;;;14.43;1.77;;;;;;;21.99;nan;101519.81;4881279;29;20461;-93